Time;durP1;ratioP1;P1;durP2;ratioP2;P2;SDS_P1;SDS_P2;PMS_P1;PMS_P2;Temp;Humidity;BMP_temperature;BMP_pressure;BME280_temperature;BME280_humidity;BME280_pressure;Samples;Min_cycle;Max_cycle;Signal;HPM_P1;HPM_P2
2022/12/28 00:01:08;;;;;;;4.23;2.53;;;;;;;9.99;100.00;102704.84;2097907;28;20442;-64
2022/12/28 00:02:08;;;;;;;3.90;2.67;;;;;;;9.99;100.00;102696.56;2104428;28;20175;-63
2022/12/28 00:03:09;;;;;;;3.73;2.30;;;;;;;9.98;100.00;102706.81;2096982;28;20428;-63
2022/12/28 00:04:13;;;;;;;3.70;1.93;;;;;;;9.98;100.00;102709.59;2112993;28;20714;-64
2022/12/28 00:05:13;;;;;;;2.47;1.80;;;;;;;9.25;100.00;102587.69;2105804;28;20243;-63
2022/12/28 00:06:15;;;;;;;2.57;1.73;;;;;;;9.17;100.00;102594.28;2103019;28;20432;-64
2022/12/28 00:07:16;;;;;;;4.40;1.80;;;;;;;9.92;100.00;102718.59;2100714;28;20191;-64
2022/12/28 00:08:16;;;;;;;3.20;1.90;;;;;;;9.86;100.00;102707.09;2100808;28;20431;-64
2022/12/28 00:09:16;;;;;;;2.40;1.60;;;;;;;9.86;100.00;102717.34;2105527;28;20211;-64
2022/12/28 00:10:17;;;;;;;3.33;1.90;;;;;;;9.88;100.00;102729.66;2104544;28;20190;-63
2022/12/28 00:11:19;;;;;;;3.10;2.13;;;;;;;9.88;100.00;102726.88;2108097;28;20182;-64
2022/12/28 00:12:20;;;;;;;3.77;1.80;;;;;;;9.80;100.00;102713.31;2105225;28;20261;-64
2022/12/28 00:13:20;;;;;;;3.03;1.90;;;;;;;9.80;100.00;102719.69;2099042;28;20979;-64
2022/12/28 00:14:21;;;;;;;2.10;1.63;;;;;;;9.78;100.00;102729.53;2097947;28;20848;-64
2022/12/28 00:15:21;;;;;;;9.63;1.63;;;;;;;9.73;100.00;102730.63;2098147;28;20191;-63
2022/12/28 00:16:25;;;;;;;3.53;1.77;;;;;;;9.67;100.00;102728.56;2098548;28;20655;-63
2022/12/28 00:17:25;;;;;;;5.30;1.70;;;;;;;9.56;100.00;102725.69;2098679;28;20247;-63
2022/12/28 00:18:25;;;;;;;3.60;1.90;;;;;;;9.58;100.00;102734.38;2098478;28;20478;-64
2022/12/28 00:19:26;;;;;;;3.17;1.90;;;;;;;9.68;100.00;102741.25;2098662;28;20170;-63
2022/12/28 00:20:26;;;;;;;3.70;1.80;;;;;;;9.53;100.00;102715.34;2098763;28;20186;-63
2022/12/28 00:21:28;;;;;;;2.77;2.00;;;;;;;9.59;100.00;102733.22;2098388;28;20225;-63
2022/12/28 00:22:28;;;;;;;3.10;1.90;;;;;;;9.58;100.00;102739.16;2098145;28;20191;-64
2022/12/28 00:23:29;;;;;;;3.23;1.63;;;;;;;9.23;100.00;102686.06;2098591;28;20440;-63
2022/12/28 00:24:30;;;;;;;4.33;1.87;;;;;;;9.47;100.00;102747.28;2098431;28;20263;-63
2022/12/28 00:25:34;;;;;;;2.50;1.77;;;;;;;9.49;100.00;102741.38;2098632;28;20865;-63
2022/12/28 00:26:35;;;;;;;3.80;2.00;;;;;;;9.48;100.00;102737.03;2098520;28;20218;-63
2022/12/28 00:27:35;;;;;;;4.07;2.30;;;;;;;9.49;100.00;102744.16;2098612;28;20417;-63
2022/12/28 00:28:36;;;;;;;2.83;1.70;;;;;;;9.41;100.00;102728.59;2098435;28;20551;-63
2022/12/28 00:29:36;;;;;;;3.13;1.90;;;;;;;9.49;100.00;102744.16;2098855;28;20178;-63
2022/12/28 00:30:37;;;;;;;3.53;1.90;;;;;;;9.48;100.00;102746.13;2098079;28;20277;-63
2022/12/28 00:31:37;;;;;;;3.20;1.80;;;;;;;9.46;100.00;102742.13;2098296;28;20209;-63
2022/12/28 00:32:38;;;;;;;2.80;1.80;;;;;;;9.41;100.00;102740.50;2098074;28;20209;-63
2022/12/28 00:33:38;;;;;;;3.40;1.93;;;;;;;8.90;100.00;102670.16;2097900;28;20236;-63
2022/12/28 00:34:39;;;;;;;2.77;1.67;;;;;;;9.38;100.00;102740.44;2097782;28;20690;-63
2022/12/28 00:35:39;;;;;;;2.27;1.63;;;;;;;9.35;100.00;102738.41;2100474;28;20178;-64
2022/12/28 00:36:40;;;;;;;3.30;1.87;;;;;;;9.00;100.00;102683.34;2106707;28;20247;-63
2022/12/28 00:37:41;;;;;;;3.75;1.90;;;;;;;9.33;100.00;102733.25;2107086;28;20170;-63
2022/12/28 00:38:42;;;;;;;2.23;1.63;;;;;;;9.31;100.00;102730.06;2106758;28;20180;-63
2022/12/28 00:39:42;;;;;;;3.42;1.98;;;;;;;9.26;100.00;102735.91;2106994;28;20191;-63
2022/12/28 00:40:43;;;;;;;4.03;1.80;;;;;;;9.23;100.00;102741.41;2106719;28;20174;-63
2022/12/28 00:41:43;;;;;;;3.93;1.80;;;;;;;9.23;100.00;102744.94;2106515;28;20272;-63
2022/12/28 00:42:43;;;;;;;3.70;1.97;;;;;;;9.22;100.00;102740.59;2106298;28;20186;-63
2022/12/28 00:43:45;;;;;;;3.57;1.90;;;;;;;9.22;100.00;102751.66;2106811;28;20196;-63
2022/12/28 00:44:45;;;;;;;2.67;1.90;;;;;;;9.18;100.00;102750.00;2106652;28;20254;-63
2022/12/28 00:45:47;;;;;;;3.00;1.90;;;;;;;8.41;100.00;102630.66;2107096;28;20178;-63
2022/12/28 00:46:47;;;;;;;4.15;1.60;;;;;;;9.15;100.00;102747.97;2098595;28;20614;-63
2022/12/28 00:47:47;;;;;;;4.07;1.97;;;;;;;9.13;100.00;102748.34;2105722;28;20200;-63
2022/12/28 00:48:48;;;;;;;2.80;1.77;;;;;;;9.07;100.00;102749.84;2101183;28;20188;-63
2022/12/28 00:49:48;;;;;;;3.53;1.90;;;;;;;9.06;100.00;102751.00;2110558;28;20203;-63
2022/12/28 00:50:49;;;;;;;3.23;1.80;;;;;;;9.11;100.00;102747.13;2102998;28;20245;-63
2022/12/28 00:51:49;;;;;;;3.20;1.70;;;;;;;9.10;100.00;102746.34;2098044;28;20662;-63
2022/12/28 00:52:50;;;;;;;2.80;1.80;;;;;;;9.06;100.00;102739.13;2097771;28;20200;-64
2022/12/28 00:53:50;;;;;;;3.03;1.70;;;;;;;9.07;100.00;102744.31;2098621;28;20568;-63
2022/12/28 00:54:50;;;;;;;2.83;1.77;;;;;;;9.04;100.00;102742.28;2098647;28;20199;-63
2022/12/28 00:55:51;;;;;;;3.37;1.80;;;;;;;9.00;100.00;102744.19;2098510;28;20207;-63
2022/12/28 00:56:51;;;;;;;3.43;1.67;;;;;;;8.98;100.00;102743.75;2104102;28;20168;-63
2022/12/28 00:57:52;;;;;;;2.20;1.70;;;;;;;8.96;100.00;102748.09;2106617;28;20171;-63
2022/12/28 00:58:58;;;;;;;3.70;2.07;;;;;;;9.00;100.00;102735.91;2106478;28;20712;-63
2022/12/28 00:59:58;;;;;;;3.17;2.00;;;;;;;9.07;100.00;102743.53;2106571;28;20187;-63
2022/12/28 01:00:59;;;;;;;2.80;1.73;;;;;;;9.03;100.00;102746.19;2104983;28;20258;-63
2022/12/28 01:01:59;;;;;;;3.27;2.10;;;;;;;9.04;100.00;102744.25;2097809;28;20177;-64
2022/12/28 01:03:00;;;;;;;2.57;1.70;;;;;;;8.96;100.00;102732.28;2098233;28;20664;-63
2022/12/28 01:04:00;;;;;;;3.33;1.83;;;;;;;8.49;100.00;102676.59;2098266;28;20188;-63
2022/12/28 01:05:01;;;;;;;2.83;1.83;;;;;;;8.88;100.00;102736.09;2098348;28;20175;-63
2022/12/28 01:06:05;;;;;;;5.53;1.80;;;;;;;8.89;100.00;102732.16;2098180;28;20188;-63
2022/12/28 01:07:06;;;;;;;2.92;1.90;;;;;;;8.14;100.00;102620.69;2098315;28;20221;-63
2022/12/28 01:08:06;;;;;;;4.13;2.23;;;;;;;8.88;100.00;102733.34;2098211;28;20277;-63
2022/12/28 01:09:06;;;;;;;2.97;1.80;;;;;;;8.86;100.00;102727.38;2099850;28;20232;-63
2022/12/28 01:10:08;;;;;;;4.17;2.03;;;;;;;8.89;100.00;102725.81;2106377;28;20218;-63
2022/12/28 01:11:11;;;;;;;3.50;2.17;;;;;;;8.90;100.00;102733.75;2108960;28;20198;-63
2022/12/28 01:12:11;;;;;;;2.72;1.83;;;;;;;8.92;100.00;102734.19;2098392;28;20229;-64
2022/12/28 01:13:12;;;;;;;3.67;2.30;;;;;;;8.97;100.00;102727.56;2098006;28;20229;-64
2022/12/28 01:14:12;;;;;;;4.07;2.10;;;;;;;8.77;100.00;102710.22;2098079;28;20608;-63
2022/12/28 01:15:13;;;;;;;2.60;1.70;;;;;;;8.86;100.00;102741.19;2098356;28;20199;-63
2022/12/28 01:16:16;;;;;;;3.40;1.97;;;;;;;8.82;100.00;102722.97;2098088;28;20262;-63
2022/12/28 01:17:17;;;;;;;2.47;1.88;;;;;;;8.83;100.00;102736.41;2098257;28;20270;-63
2022/12/28 01:18:17;;;;;;;4.83;1.90;;;;;;;8.81;100.00;102738.75;2098028;28;20174;-63
2022/12/28 01:19:20;;;;;;;3.27;1.90;;;;;;;8.65;100.00;102707.66;2098179;28;20252;-63
2022/12/28 01:20:21;;;;;;;3.10;1.85;;;;;;;8.85;100.00;102742.38;2098177;28;20187;-63
2022/12/28 01:21:24;;;;;;;2.70;1.50;;;;;;;8.76;100.00;102738.25;2106494;28;20186;-63
2022/12/28 01:22:24;;;;;;;2.70;2.00;;;;;;;8.76;100.00;102739.03;2106107;28;20640;-64
2022/12/28 01:23:25;;;;;;;3.83;1.60;;;;;;;8.77;100.00;102740.63;2105848;28;20626;-63
2022/12/28 01:24:25;;;;;;;4.67;1.80;;;;;;;8.68;100.00;102719.94;2099632;28;20228;-63
2022/12/28 01:25:26;;;;;;;2.90;1.77;;;;;;;8.76;100.00;102739.03;2101996;28;20178;-63
2022/12/28 01:26:27;;;;;;;2.93;1.70;;;;;;;8.75;100.00;102750.47;2106364;28;20195;-64
2022/12/28 01:27:28;;;;;;;4.05;2.10;;;;;;;8.74;100.00;102740.59;2104787;28;20638;-63
2022/12/28 01:28:28;;;;;;;3.37;2.00;;;;;;;8.72;100.00;102743.72;2097904;28;20180;-63
2022/12/28 01:29:29;;;;;;;4.80;2.20;;;;;;;8.73;100.00;102734.28;2098341;28;20263;-63
2022/12/28 01:30:29;;;;;;;4.10;1.93;;;;;;;8.69;100.00;102741.69;2097751;28;20665;-63
2022/12/28 01:31:30;;;;;;;3.47;1.97;;;;;;;8.00;100.00;102628.72;2097810;28;20261;-64
2022/12/28 01:32:30;;;;;;;4.47;2.10;;;;;;;8.66;100.00;102741.66;2097495;28;20229;-63
2022/12/28 01:33:31;;;;;;;3.03;1.87;;;;;;;8.73;100.00;102741.75;2098170;28;20188;-63
2022/12/28 01:34:31;;;;;;;3.60;2.00;;;;;;;8.74;100.00;102738.63;2101022;28;20179;-63
2022/12/28 01:35:32;;;;;;;3.40;2.00;;;;;;;8.63;100.00;102723.03;2106284;28;20260;-63
2022/12/28 01:36:36;;;;;;;2.90;2.03;;;;;;;8.66;100.00;102730.59;2106239;28;20184;-63
2022/12/28 01:37:36;;;;;;;3.25;1.95;;;;;;;8.70;100.00;102742.47;2106691;28;20186;-63
2022/12/28 01:38:36;;;;;;;6.40;2.20;;;;;;;8.65;100.00;102737.25;2098111;28;20172;-64
2022/12/28 01:39:37;;;;;;;4.40;2.30;;;;;;;8.54;100.00;102716.94;2098036;28;20216;-64
2022/12/28 01:40:41;;;;;;;3.50;2.30;;;;;;;8.64;100.00;102741.19;2097984;28;20188;-64
2022/12/28 01:41:42;;;;;;;6.65;2.55;;;;;;;8.64;100.00;102743.97;2097576;28;20612;-64
2022/12/28 01:42:42;;;;;;;4.70;2.53;;;;;;;8.70;100.00;102734.19;2097392;28;20191;-64
2022/12/28 01:43:46;;;;;;;4.90;2.10;;;;;;;8.75;100.00;102744.94;2097948;28;20566;-64
2022/12/28 01:44:48;;;;;;;5.22;2.22;;;;;;;8.79;100.00;102743.84;2097768;28;20173;-64
2022/12/28 01:45:51;;;;;;;4.72;2.30;;;;;;;8.83;100.00;102741.13;2098031;28;20180;-64
2022/12/28 01:47:05;;;;;;;3.60;2.10;;;;;;;8.25;100.00;102663.13;2097833;28;20745;-64
2022/12/28 01:48:16;;;;;;;5.07;2.10;;;;;;;8.75;100.00;102742.16;2098926;28;20160;-64
2022/12/28 01:49:27;;;;;;;5.38;2.30;;;;;;;8.77;100.00;102743.41;2107582;28;20738;-64
2022/12/28 01:50:28;;;;;;;4.43;2.05;;;;;;;8.77;100.00;102737.09;2097710;28;20247;-64
2022/12/28 01:51:33;;;;;;;3.42;1.98;;;;;;;8.79;100.00;102738.31;2098243;28;20821;-64
2022/12/28 01:52:40;;;;;;;4.57;2.22;;;;;;;8.83;100.00;102735.59;2105660;28;20192;-64
2022/12/28 01:53:40;;;;;;;3.65;2.30;;;;;;;8.88;100.00;102735.31;2106658;28;20171;-64
2022/12/28 01:54:49;;;;;;;4.20;2.30;;;;;;;8.92;100.00;102739.72;2106079;28;20179;-64
2022/12/28 01:55:50;;;;;;;3.65;2.00;;;;;;;8.92;100.00;102745.25;2106408;28;20220;-64
2022/12/28 01:56:51;;;;;;;5.77;2.80;;;;;;;8.90;100.00;102742.06;2106120;28;20260;-64
2022/12/28 01:58:00;;;;;;;4.67;2.73;;;;;;;8.76;100.00;102743.78;2106266;28;20276;-64
2022/12/28 01:59:00;;;;;;;5.22;2.60;;;;;;;8.74;100.00;102744.16;2106263;28;20799;-64
2022/12/28 02:00:07;;;;;;;3.77;2.10;;;;;;;8.69;100.00;102741.69;2106178;28;20194;-64
2022/12/28 02:01:08;;;;;;;3.45;2.10;;;;;;;8.48;100.00;102716.47;2106049;28;20676;-64
2022/12/28 02:02:12;;;;;;;4.83;2.40;;;;;;;8.59;100.00;102738.72;2102492;28;20589;-63
2022/12/28 02:03:33;;;;;;;3.30;2.17;;;;;;;8.54;100.00;102739.03;2100031;28;20414;-63
2022/12/28 02:04:33;;;;;;;5.32;2.30;;;;;;;8.49;100.00;102748.44;2105985;28;20187;-64
2022/12/28 02:05:39;;;;;;;5.27;2.73;;;;;;;8.46;100.00;102746.41;2102444;28;20677;-64
2022/12/28 02:06:39;;;;;;;3.92;2.70;;;;;;;8.47;100.00;102736.16;2097058;28;20247;-64
2022/12/28 02:07:51;;;;;;;3.87;2.33;;;;;;;8.42;100.00;102733.69;2097843;28;20229;-64
2022/12/28 02:09:10;;;;;;;6.35;2.90;;;;;;;8.44;100.00;102743.22;2097706;28;20169;-64
2022/12/28 02:10:11;;;;;;;4.63;2.10;;;;;;;8.37;100.00;102737.56;2100911;28;20220;-64
2022/12/28 02:11:15;;;;;;;3.67;2.10;;;;;;;8.35;100.00;102745.41;2106444;28;20222;-64
2022/12/28 02:12:16;;;;;;;6.45;2.17;;;;;;;8.32;100.00;102742.59;2104604;28;20175;-64
2022/12/28 02:13:17;;;;;;;3.63;2.00;;;;;;;8.38;100.00;102736.41;2097471;28;20180;-64
2022/12/28 02:14:18;;;;;;;3.58;2.20;;;;;;;8.37;100.00;102737.56;2097904;28;20649;-64
2022/12/28 02:15:19;;;;;;;6.15;2.45;;;;;;;8.35;100.00;102739.88;2097810;28;20179;-64
2022/12/28 02:16:19;;;;;;;3.57;2.07;;;;;;;8.39;100.00;102731.66;2097741;28;20191;-64
2022/12/28 02:17:20;;;;;;;3.87;2.10;;;;;;;8.43;100.00;102727.00;2097729;28;20631;-64
2022/12/28 02:18:22;;;;;;;3.23;2.10;;;;;;;8.04;100.00;102667.47;2097557;28;20207;-64
2022/12/28 02:19:44;;;;;;;4.90;2.22;;;;;;;8.52;100.00;102735.84;2097804;28;20718;-64
2022/12/28 02:21:10;;;;;;;4.35;2.60;;;;;;;8.55;100.00;102730.38;2097590;28;20187;-64
2022/12/28 02:22:43;;;;;;;5.18;2.80;;;;;;;8.58;100.00;102732.44;2097391;28;20641;-64
2022/12/28 02:23:49;;;;;;;5.28;2.42;;;;;;;8.59;100.00;102731.25;2098914;28;20541;-64
2022/12/28 02:25:11;;;;;;;5.13;2.70;;;;;;;8.62;100.00;102730.50;2104954;28;20163;-64
2022/12/28 02:26:36;;;;;;;5.32;2.38;;;;;;;8.68;100.00;102734.59;2097560;28;20164;-64
2022/12/28 02:28:03;;;;;;;4.88;2.78;;;;;;;8.64;100.00;102719.91;2097730;28;20188;-64
2022/12/28 02:29:18;;;;;;;5.80;2.67;;;;;;;8.49;100.00;102723.56;2097696;28;20174;-64
2022/12/28 02:30:19;;;;;;;4.43;2.63;;;;;;;8.53;100.00;102718.91;2097196;28;20227;-64
2022/12/28 02:31:33;;;;;;;7.30;3.03;;;;;;;8.56;100.00;102709.09;2097360;28;20416;-64
2022/12/28 02:32:55;;;;;;;3.72;2.30;;;;;;;8.57;100.00;102718.97;2097096;28;20211;-64
2022/12/28 02:34:20;;;;;;;5.35;2.10;;;;;;;8.60;100.00;102701.63;2097830;28;20154;-64
2022/12/28 02:35:26;;;;;;;5.40;2.17;;;;;;;8.59;100.00;102702.81;2099720;28;20168;-64
2022/12/28 02:36:33;;;;;;;3.30;2.08;;;;;;;8.59;100.00;102700.03;2105569;28;20193;-64
2022/12/28 02:37:37;;;;;;;3.47;2.00;;;;;;;8.59;100.00;102703.63;2104685;28;20162;-64
2022/12/28 02:39:05;;;;;;;6.30;2.33;;;;;;;8.55;100.00;102705.50;2097218;28;20218;-64
2022/12/28 02:40:16;;;;;;;4.70;2.70;;;;;;;8.57;100.00;102700.41;2094654;28;20196;-64
2022/12/28 02:41:20;;;;;;;3.40;2.17;;;;;;;8.56;100.00;102704.34;2101868;28;20679;-64
2022/12/28 02:42:24;;;;;;;4.15;2.30;;;;;;;8.54;100.00;102694.81;2097007;28;20223;-64
2022/12/28 02:43:25;;;;;;;3.13;2.20;;;;;;;8.55;100.00;102694.47;2097591;28;20177;-64
2022/12/28 02:50:05;;;;;;;3.20;2.08;;;;;;;8.49;100.00;102687.66;2097770;28;20638;-64
2022/12/28 02:51:44;;;;;;;3.88;2.35;;;;;;;8.43;100.00;102680.03;2097618;28;20712;-64
2022/12/28 02:52:55;;;;;;;3.75;1.90;;;;;;;8.43;100.00;102686.38;2059583;28;20195;-64
2022/12/28 02:56:14;;;;;;;3.58;1.90;;;;;;;8.33;100.00;102694.44;2098385;28;20647;-64
2022/12/28 02:57:36;;;;;;;3.80;2.00;;;;;;;8.10;100.00;102679.81;2105807;28;20604;-64
2022/12/28 02:59:14;;;;;;;3.72;2.15;;;;;;;8.05;100.00;102685.63;2101292;28;20164;-64
2022/12/28 03:00:18;;;;;;;3.22;2.10;;;;;;;7.50;100.00;102612.38;2096894;28;20176;-64
2022/12/28 03:01:19;;;;;;;3.20;2.10;;;;;;;7.99;100.00;102693.38;2104458;28;20181;-64
2022/12/28 03:02:48;;;;;;;4.23;2.00;;;;;;;7.89;100.00;102693.97;2105409;28;20706;-64
2022/12/28 03:04:02;;;;;;;3.78;2.15;;;;;;;7.90;100.00;102694.78;2097010;28;20260;-64
2022/12/28 03:05:17;;;;;;;4.28;2.13;;;;;;;7.86;100.00;102699.44;2098030;28;20180;-64
2022/12/28 03:08:18;;;;;;;3.40;2.25;;;;;;;7.85;100.00;102703.38;2100845;28;20171;-63
2022/12/28 03:09:29;;;;;;;3.70;2.20;;;;;;;7.50;100.00;102655.72;2100332;28;20217;-64
2022/12/28 03:10:51;;;;;;;3.30;2.30;;;;;;;7.74;100.00;102699.59;2105619;28;20175;-64
2022/12/28 03:12:09;;;;;;;3.28;2.40;;;;;;;7.69;100.00;102702.63;2097264;28;20229;-64
2022/12/28 03:14:42;;;;;;;4.03;2.53;;;;;;;7.65;100.00;102699.81;2103443;28;20169;-64
2022/12/28 03:15:43;;;;;;;3.63;2.42;;;;;;;7.55;100.00;102686.59;2105765;28;20648;-64
2022/12/28 03:31:57;;;;;;;4.63;2.65;;;;;;;8.14;100.00;102717.34;2097015;28;20198;-64
2022/12/28 03:32:58;;;;;;;4.53;2.70;;;;;;;8.19;100.00;102706.00;2096911;28;20719;-64
2022/12/28 03:34:06;;;;;;;5.20;2.55;;;;;;;8.22;100.00;102716.38;2097265;28;20179;-64
2022/12/28 03:35:07;;;;;;;4.68;2.50;;;;;;;8.20;100.00;102699.34;2097373;28;20171;-64
2022/12/28 03:36:13;;;;;;;4.10;2.30;;;;;;;8.25;100.00;102706.56;2097088;28;20174;-64
2022/12/28 03:37:17;;;;;;;4.85;2.47;;;;;;;8.29;100.00;102712.91;2097347;28;20561;-64
2022/12/28 03:38:28;;;;;;;4.63;2.38;;;;;;;8.33;100.00;102711.03;2097361;28;20255;-64
2022/12/28 03:39:35;;;;;;;3.83;2.47;;;;;;;8.04;100.00;102667.47;2097509;28;20165;-64
2022/12/28 03:40:47;;;;;;;4.85;2.78;;;;;;;8.30;100.00;102707.03;2097413;28;20164;-64
2022/12/28 03:43:43;;;;;;;3.95;2.72;;;;;;;8.07;100.00;102692.38;2097208;28;20566;-64
2022/12/28 03:44:51;;;;;;;3.20;2.20;;;;;;;8.06;100.00;102712.88;2097164;28;20566;-64
2022/12/28 03:46:06;;;;;;;6.85;2.50;;;;;;;7.96;100.00;102716.22;2097406;28;20192;-64
2022/12/28 03:47:11;;;;;;;3.25;2.30;;;;;;;7.96;100.00;102718.97;2097381;28;20609;-64
2022/12/28 03:48:12;;;;;;;3.22;2.45;;;;;;;7.99;100.00;102714.69;2098107;28;20223;-64
2022/12/28 03:49:13;;;;;;;3.20;2.20;;;;;;;7.99;100.00;102709.19;2106443;28;20171;-64
2022/12/28 03:50:15;;;;;;;4.65;2.25;;;;;;;7.81;100.00;102689.50;2111951;28;20197;-64
2022/12/28 03:51:20;;;;;;;4.95;2.50;;;;;;;7.99;100.00;102715.47;2104455;28;20251;-64
2022/12/28 03:52:21;;;;;;;3.58;2.10;;;;;;;7.21;100.00;102596.41;2098313;28;20176;-64
2022/12/28 03:53:29;;;;;;;3.60;2.17;;;;;;;7.89;100.00;102721.59;2098866;28;20179;-64
2022/12/28 03:54:29;;;;;;;5.25;2.38;;;;;;;7.86;100.00;102725.09;2098681;28;20164;-64
2022/12/28 03:55:30;;;;;;;3.97;1.97;;;;;;;7.82;100.00;102726.16;2099118;28;20233;-64
2022/12/28 03:56:30;;;;;;;3.03;2.10;;;;;;;7.76;100.00;102722.91;2106745;28;20684;-64
2022/12/28 03:57:31;;;;;;;5.87;2.27;;;;;;;7.75;100.00;102726.03;2100448;28;20554;-64
2022/12/28 03:58:31;;;;;;;3.90;2.07;;;;;;;7.66;100.00;102708.88;2098751;28;20198;-64
2022/12/28 03:59:32;;;;;;;4.13;2.00;;;;;;;7.71;100.00;102709.41;2098933;28;20253;-64
2022/12/28 04:00:33;;;;;;;3.43;2.20;;;;;;;7.78;100.00;102717.00;2098644;28;20211;-64
2022/12/28 04:01:33;;;;;;;3.63;2.17;;;;;;;7.73;100.00;102715.34;2098561;28;20650;-63
2022/12/28 04:02:34;;;;;;;6.30;2.33;;;;;;;7.71;100.00;102714.91;2098076;28;20547;-64
2022/12/28 04:03:34;;;;;;;4.47;2.57;;;;;;;7.65;100.00;102713.59;2099181;28;20242;-64
2022/12/28 04:04:35;;;;;;;4.03;2.70;;;;;;;7.61;100.00;102718.25;2098517;28;20268;-64
2022/12/28 04:05:35;;;;;;;5.10;2.60;;;;;;;7.65;100.00;102708.09;2098917;28;20312;-64
2022/12/28 04:06:36;;;;;;;4.97;2.40;;;;;;;7.65;100.00;102710.03;2104366;28;20176;-64
2022/12/28 04:07:36;;;;;;;4.77;3.30;;;;;;;7.71;100.00;102725.16;2107199;28;20223;-64
2022/12/28 04:08:36;;;;;;;4.20;2.63;;;;;;;7.70;100.00;102729.06;2103812;28;20254;-64
2022/12/28 04:09:37;;;;;;;4.83;2.60;;;;;;;7.66;100.00;102723.47;2105783;28;20230;-64
2022/12/28 04:10:37;;;;;;;3.53;2.30;;;;;;;7.60;100.00;102733.22;2105366;28;20209;-64
2022/12/28 04:11:38;;;;;;;4.27;2.57;;;;;;;7.47;100.00;102712.41;2111126;28;20261;-64
2022/12/28 04:12:38;;;;;;;5.47;2.77;;;;;;;7.59;100.00;102736.31;2106881;28;20380;-64
2022/12/28 04:13:39;;;;;;;3.60;2.53;;;;;;;7.49;100.00;102712.06;2100271;28;20180;-64
2022/12/28 04:14:39;;;;;;;4.53;3.27;;;;;;;7.60;100.00;102727.69;2098611;28;20185;-64
2022/12/28 04:15:40;;;;;;;5.80;3.43;;;;;;;7.61;100.00;102726.53;2098777;28;20180;-64
2022/12/28 04:16:40;;;;;;;5.50;3.50;;;;;;;7.63;100.00;102728.94;2101751;28;20648;-64
2022/12/28 04:17:40;;;;;;;6.10;3.87;;;;;;;7.66;100.00;102725.44;2107115;28;20168;-64
2022/12/28 04:18:42;;;;;;;4.67;3.07;;;;;;;7.41;100.00;102686.28;2105875;28;20167;-63
2022/12/28 04:19:42;;;;;;;9.55;4.30;;;;;;;7.69;100.00;102724.72;2098909;28;20657;-63
2022/12/28 04:20:42;;;;;;;8.43;4.00;;;;;;;7.68;100.00;102731.41;2098481;28;20639;-64
2022/12/28 04:21:43;;;;;;;6.40;3.90;;;;;;;7.68;100.00;102732.19;2098346;28;20206;-64
2022/12/28 04:22:43;;;;;;;6.90;3.80;;;;;;;7.54;100.00;102707.03;2097947;28;20188;-64
2022/12/28 04:23:44;;;;;;;7.40;4.10;;;;;;;7.67;100.00;102733.34;2103244;28;20318;-64
2022/12/28 04:24:44;;;;;;;5.30;3.00;;;;;;;7.34;100.00;102685.31;2106841;28;20183;-64
2022/12/28 04:26:02;;;;;;;4.17;2.57;;;;;;;7.62;100.00;102738.34;2104901;28;20171;-64
2022/12/28 04:27:02;;;;;;;4.57;2.40;;;;;;;7.58;100.00;102738.28;2098638;28;20728;-64
2022/12/28 04:28:03;;;;;;;3.53;2.53;;;;;;;7.58;100.00;102737.50;2098511;28;20200;-64
2022/12/28 04:29:03;;;;;;;6.00;2.60;;;;;;;7.53;100.00;102738.56;2098598;28;20169;-63
2022/12/28 04:30:04;;;;;;;6.30;3.50;;;;;;;7.58;100.00;102740.25;2098527;28;20222;-64
2022/12/28 04:31:06;;;;;;;5.80;3.03;;;;;;;7.56;100.00;102750.84;2098569;28;20223;-64
2022/12/28 04:32:07;;;;;;;6.07;2.50;;;;;;;7.33;100.00;102720.38;2098324;28;20192;-64
2022/12/28 04:33:07;;;;;;;3.20;2.30;;;;;;;7.51;100.00;102754.69;2098198;28;20187;-64
2022/12/28 04:34:07;;;;;;;3.17;2.00;;;;;;;7.48;100.00;102749.88;2098416;28;20187;-64
2022/12/28 04:35:08;;;;;;;2.77;1.90;;;;;;;7.44;100.00;102746.22;2102436;28;20622;-64
2022/12/28 04:36:15;;;;;;;5.83;2.37;;;;;;;7.36;100.00;102741.72;2106710;28;20179;-64
2022/12/28 04:37:16;;;;;;;4.03;2.55;;;;;;;7.42;100.00;102748.56;2104623;28;20545;-64
2022/12/28 04:38:17;;;;;;;3.70;2.00;;;;;;;7.39;100.00;102746.50;2104800;28;20193;-64
2022/12/28 04:39:17;;;;;;;4.80;2.53;;;;;;;7.41;100.00;102751.69;2097841;28;20179;-64
2022/12/28 04:40:18;;;;;;;4.77;2.40;;;;;;;7.40;100.00;102756.41;2098585;28;20222;-64
2022/12/28 04:41:18;;;;;;;4.83;2.10;;;;;;;7.40;100.00;102753.66;2105487;28;20848;-64
2022/12/28 04:42:19;;;;;;;5.70;2.30;;;;;;;6.95;100.00;102681.69;2106445;28;20255;-64
2022/12/28 04:43:19;;;;;;;5.73;2.57;;;;;;;7.37;100.00;102751.59;2101965;28;20205;-64
2022/12/28 04:44:19;;;;;;;5.50;2.27;;;;;;;7.38;100.00;102766.97;2098257;28;20197;-64
2022/12/28 04:45:20;;;;;;;4.87;2.47;;;;;;;7.37;100.00;102765.38;2098523;28;20180;-64
2022/12/28 04:46:21;;;;;;;3.70;1.90;;;;;;;7.30;100.00;102756.97;2098407;28;20661;-64
2022/12/28 04:47:21;;;;;;;6.57;2.30;;;;;;;7.33;100.00;102761.75;2098336;28;20634;-64
2022/12/28 04:48:21;;;;;;;4.50;2.17;;;;;;;7.01;100.00;102712.50;2098517;28;20185;-64
2022/12/28 04:49:22;;;;;;;7.50;2.37;;;;;;;7.31;100.00;102761.31;2108591;28;20202;-63
2022/12/28 04:50:23;;;;;;;4.33;2.10;;;;;;;7.29;100.00;102758.09;2108741;28;20224;-64
2022/12/28 04:51:26;;;;;;;5.45;2.05;;;;;;;7.27;100.00;102771.47;2101307;28;20176;-63
2022/12/28 04:52:27;;;;;;;3.00;1.73;;;;;;;7.22;100.00;102763.47;2097821;28;20195;-64
2022/12/28 04:53:27;;;;;;;3.93;2.10;;;;;;;7.24;100.00;102768.63;2098528;28;20179;-64
2022/12/28 04:54:27;;;;;;;2.73;1.70;;;;;;;7.25;100.00;102773.78;2098185;28;20643;-64
2022/12/28 04:55:28;;;;;;;4.00;1.77;;;;;;;7.25;100.00;102772.97;2098346;28;20168;-64
2022/12/28 04:56:28;;;;;;;2.83;1.93;;;;;;;7.25;100.00;102765.50;2098494;28;20199;-64
2022/12/28 04:57:29;;;;;;;2.63;1.77;;;;;;;7.30;100.00;102775.47;2106170;28;20199;-63
2022/12/28 04:58:29;;;;;;;3.67;1.90;;;;;;;7.28;100.00;102775.03;2105893;28;20187;-64
2022/12/28 04:59:30;;;;;;;3.17;1.60;;;;;;;7.29;100.00;102782.13;2098354;28;20543;-64
2022/12/28 05:00:30;;;;;;;3.80;1.70;;;;;;;7.27;100.00;102781.69;2098177;28;20176;-64
2022/12/28 05:01:31;;;;;;;3.33;1.57;;;;;;;7.29;100.00;102782.91;2098027;28;20191;-64
2022/12/28 05:02:31;;;;;;;6.97;2.10;;;;;;;7.34;100.00;102774.38;2099851;28;20182;-64
2022/12/28 05:03:32;;;;;;;8.30;2.57;;;;;;;6.72;100.00;102686.22;2105704;28;20610;-64
2022/12/28 05:04:32;;;;;;;4.50;2.13;;;;;;;7.19;100.00;102779.94;2098441;28;20259;-64
2022/12/28 05:05:33;;;;;;;5.20;2.20;;;;;;;7.19;100.00;102775.22;2106569;28;20679;-64
2022/12/28 05:06:33;;;;;;;6.83;2.60;;;;;;;7.16;100.00;102773.16;2099537;28;20194;-64
2022/12/28 05:07:34;;;;;;;5.47;2.00;;;;;;;6.85;100.00;102742.88;2104241;28;20483;-64
2022/12/28 05:08:35;;;;;;;5.70;1.93;;;;;;;7.12;100.00;102779.75;2101794;28;20277;-64
2022/12/28 05:09:36;;;;;;;4.53;1.83;;;;;;;7.12;100.00;102780.53;2101933;28;20270;-64
2022/12/28 05:10:36;;;;;;;3.17;1.60;;;;;;;7.12;100.00;102785.28;2098080;28;20676;-64
2022/12/28 05:11:37;;;;;;;3.83;1.70;;;;;;;7.10;100.00;102782.88;2109321;28;20674;-64
2022/12/28 05:12:37;;;;;;;6.60;2.00;;;;;;;7.12;100.00;102788.81;2105920;28;20572;-64
2022/12/28 05:13:38;;;;;;;4.27;2.00;;;;;;;7.06;100.00;102804.03;2098519;28;20637;-64
2022/12/28 05:14:38;;;;;;;3.63;1.97;;;;;;;7.10;100.00;102795.84;2098255;28;20270;-64
2022/12/28 05:15:39;;;;;;;3.10;2.00;;;;;;;7.00;100.00;102783.41;2098285;28;20187;-64
2022/12/28 05:16:39;;;;;;;4.57;1.77;;;;;;;6.83;100.00;102766.41;2098128;28;20206;-64
2022/12/28 05:17:39;;;;;;;3.80;1.80;;;;;;;6.91;100.00;102806.78;2098245;28;20174;-64
2022/12/28 05:18:40;;;;;;;5.47;2.33;;;;;;;6.90;100.00;102808.75;2098069;28;21409;-64
2022/12/28 05:19:41;;;;;;;4.40;2.40;;;;;;;6.90;100.00;102808.75;2098343;28;20543;-64
2022/12/28 05:20:41;;;;;;;3.90;2.40;;;;;;;6.93;100.00;102810.78;2097905;28;20217;-64
2022/12/28 05:21:42;;;;;;;5.37;2.90;;;;;;;6.86;100.00;102809.78;2097985;28;20209;-64
2022/12/28 05:22:42;;;;;;;8.37;3.27;;;;;;;6.88;100.00;102811.03;2105222;28;20267;-64
2022/12/28 05:23:43;;;;;;;6.97;3.10;;;;;;;6.87;100.00;102803.16;2106637;28;20190;-64